Time;durP1;ratioP1;P1;durP2;ratioP2;P2;SDS_P1;SDS_P2;PMS_P1;PMS_P2;Temp;Humidity;BMP_temperature;BMP_pressure;BME280_temperature;BME280_humidity;BME280_pressure;Samples;Min_cycle;Max_cycle;Signal;HPM_P1;HPM_P2
2023/12/06 00:01:05;;;;;;;50.15;32.50;;;1.40;99.90;;;;;;5073138;28;20427;-73
2023/12/06 00:03:31;;;;;;;44.90;31.85;;;1.40;99.90;;;;;;5071978;28;20032;-73
2023/12/06 00:05:56;;;;;;;52.22;33.83;;;1.30;99.90;;;;;;5071897;28;20040;-73
2023/12/06 00:08:22;;;;;;;51.13;34.05;;;1.40;99.90;;;;;;5071581;28;20513;-73
2023/12/06 00:10:48;;;;;;;47.63;32.30;;;1.40;99.90;;;;;;5071543;28;20068;-73
2023/12/06 00:13:14;;;;;;;52.08;34.33;;;1.30;99.90;;;;;;5072743;28;20528;-73
2023/12/06 00:15:39;;;;;;;47.83;33.30;;;1.40;99.90;;;;;;5073948;28;20076;-73
2023/12/06 00:18:05;;;;;;;53.80;35.50;;;1.40;99.90;;;;;;5075444;28;20102;-73
2023/12/06 00:20:31;;;;;;;43.20;31.55;;;1.40;99.90;;;;;;5075372;28;20040;-73
2023/12/06 00:22:56;;;;;;;47.58;32.60;;;1.40;99.90;;;;;;5075454;28;20024;-73
2023/12/06 00:25:22;;;;;;;49.63;33.55;;;1.40;99.90;;;;;;5075317;28;20493;-73
2023/12/06 00:27:48;;;;;;;48.65;33.08;;;1.40;99.90;;;;;;5075535;28;20048;-73
2023/12/06 00:30:14;;;;;;;52.58;33.72;;;1.40;99.90;;;;;;5075173;28;20065;-73
2023/12/06 00:32:39;;;;;;;45.10;31.92;;;1.40;99.90;;;;;;5075179;28;20037;-73
2023/12/06 00:35:08;;;;;;;51.17;34.05;;;1.50;99.90;;;;;;5058450;28;20062;-73
2023/12/06 00:37:34;;;;;;;48.88;32.55;;;1.50;99.90;;;;;;5075016;28;20382;-73
2023/12/06 00:39:59;;;;;;;50.33;34.70;;;1.40;99.90;;;;;;5074962;28;20103;-73
2023/12/06 00:42:25;;;;;;;55.83;35.88;;;1.40;99.90;;;;;;5058335;28;20507;-73
2023/12/06 00:44:50;;;;;;;53.08;33.15;;;1.50;99.90;;;;;;5076167;28;20089;-73
2023/12/06 00:47:16;;;;;;;48.53;32.63;;;1.40;99.90;;;;;;5074918;28;20043;-73
2023/12/06 00:49:41;;;;;;;48.45;33.20;;;1.40;99.90;;;;;;5076835;28;20117;-73
2023/12/06 00:52:08;;;;;;;49.53;33.63;;;1.50;99.90;;;;;;5074831;28;20097;-73
2023/12/06 00:54:33;;;;;;;48.80;32.95;;;1.40;99.90;;;;;;5074938;28;20033;-73
2023/12/06 00:56:59;;;;;;;49.30;32.83;;;1.50;99.90;;;;;;5074688;28;20412;-73
2023/12/06 00:59:24;;;;;;;51.85;34.97;;;1.50;99.90;;;;;;5074611;28;20082;-73
2023/12/06 01:01:50;;;;;;;50.17;34.47;;;1.50;99.90;;;;;;5075844;28;20037;-73
2023/12/06 01:04:16;;;;;;;53.10;34.92;;;1.50;99.90;;;;;;5057969;28;20119;-73
2023/12/06 01:06:41;;;;;;;50.35;33.15;;;1.50;99.90;;;;;;5074530;28;20078;-73
2023/12/06 01:09:08;;;;;;;57.13;35.13;;;1.50;99.90;;;;;;5075941;28;20041;-72
2023/12/06 01:11:33;;;;;;;49.53;32.67;;;1.50;99.90;;;;;;5075973;28;20044;-73
2023/12/06 01:13:59;;;;;;;55.58;36.05;;;1.50;99.90;;;;;;5074427;28;20033;-73
2023/12/06 01:16:24;;;;;;;52.33;34.28;;;1.50;99.90;;;;;;5074619;28;20032;-73
2023/12/06 01:18:50;;;;;;;56.22;35.83;;;1.50;99.90;;;;;;5074315;28;20465;-74
2023/12/06 01:21:16;;;;;;;51.92;35.15;;;1.50;99.90;;;;;;5074109;28;20039;-73
2023/12/06 01:23:41;;;;;;;57.42;36.42;;;1.60;99.90;;;;;;5074222;28;20048;-73
2023/12/06 01:26:07;;;;;;;56.40;35.55;;;1.50;99.90;;;;;;5074451;28;20056;-73
2023/12/06 01:28:34;;;;;;;57.42;35.45;;;1.60;99.90;;;;;;5073496;28;20136;-73
2023/12/06 01:30:59;;;;;;;50.30;32.72;;;1.60;99.90;;;;;;5075227;28;20079;-73
2023/12/06 01:33:25;;;;;;;61.95;35.70;;;1.50;99.90;;;;;;5074059;28;20043;-73
2023/12/06 01:35:50;;;;;;;52.88;34.65;;;1.60;99.90;;;;;;5074048;28;20037;-73
2023/12/06 01:38:16;;;;;;;52.72;35.33;;;1.60;99.90;;;;;;5074324;28;20385;-73
2023/12/06 01:40:43;;;;;;;51.35;33.78;;;1.50;99.90;;;;;;5057184;28;20032;-73
2023/12/06 01:43:09;;;;;;;56.70;36.17;;;1.60;99.90;;;;;;5075381;28;20097;-73
2023/12/06 01:45:34;;;;;;;58.33;35.85;;;1.60;99.90;;;;;;5073838;28;20044;-73
2023/12/06 01:48:00;;;;;;;55.92;34.92;;;1.50;99.90;;;;;;5073802;28;20082;-73
2023/12/06 01:50:27;;;;;;;60.55;37.38;;;1.60;99.90;;;;;;5073678;28;20105;-73
2023/12/06 01:52:57;;;;;;;57.88;35.42;;;1.60;99.90;;;;;;5075231;28;20051;-73
2023/12/06 01:55:23;;;;;;;52.85;34.53;;;1.60;99.90;;;;;;5073708;28;20082;-73
2023/12/06 01:57:49;;;;;;;58.15;35.83;;;1.60;99.90;;;;;;5075110;28;20098;-73
2023/12/06 02:00:15;;;;;;;54.67;34.63;;;1.60;99.90;;;;;;5073474;28;20085;-73
2023/12/06 02:02:41;;;;;;;54.33;35.35;;;1.60;99.90;;;;;;5073817;28;20374;-73
2023/12/06 02:05:08;;;;;;;58.45;36.15;;;1.60;99.90;;;;;;5074936;28;20118;-72
2023/12/06 02:07:35;;;;;;;55.80;35.58;;;1.60;99.90;;;;;;5073644;28;20110;-73
2023/12/06 02:10:02;;;;;;;56.20;35.15;;;1.70;99.90;;;;;;5074844;28;20044;-72
2023/12/06 02:12:27;;;;;;;50.88;34.33;;;1.60;99.90;;;;;;5073562;28;20080;-73
2023/12/06 02:14:53;;;;;;;56.70;35.75;;;1.60;99.90;;;;;;5073218;28;20562;-73
2023/12/06 02:17:19;;;;;;;55.50;34.53;;;1.70;99.90;;;;;;5073566;28;20055;-73
2023/12/06 02:19:45;;;;;;;50.97;33.08;;;1.70;99.90;;;;;;5073364;28;20139;-73
2023/12/06 02:22:12;;;;;;;50.75;33.10;;;1.60;99.90;;;;;;5073267;28;20471;-73
2023/12/06 02:24:40;;;;;;;48.13;32.25;;;1.70;99.90;;;;;;5074545;28;20094;-73
2023/12/06 02:27:06;;;;;;;48.50;32.80;;;1.70;99.90;;;;;;5072969;28;20477;-73
2023/12/06 02:29:31;;;;;;;45.92;29.83;;;1.70;99.90;;;;;;5074340;28;20072;-73
2023/12/06 02:31:57;;;;;;;53.58;32.13;;;1.60;99.90;;;;;;5074398;28;20401;-73
2023/12/06 02:34:25;;;;;;;46.75;30.33;;;1.60;99.90;;;;;;5072795;28;21939;-73
2023/12/06 02:36:56;;;;;;;49.58;31.55;;;1.60;99.90;;;;;;5056153;28;20382;-73
2023/12/06 02:39:21;;;;;;;44.28;29.63;;;1.60;99.90;;;;;;5072603;28;20115;-73
2023/12/06 02:41:47;;;;;;;44.03;29.02;;;1.60;99.90;;;;;;5072968;28;20060;-73
2023/12/06 02:44:13;;;;;;;41.33;28.67;;;1.60;99.90;;;;;;5072992;28;20481;-73
2023/12/06 02:46:38;;;;;;;45.03;29.65;;;1.60;99.90;;;;;;5072645;28;20032;-73
2023/12/06 02:49:04;;;;;;;39.67;28.08;;;1.70;99.90;;;;;;5072518;28;20081;-73
2023/12/06 02:51:30;;;;;;;44.30;28.25;;;1.60;99.90;;;;;;5073765;28;20032;-73
2023/12/06 02:53:55;;;;;;;41.67;28.15;;;1.60;99.90;;;;;;5072467;28;20043;-73
2023/12/06 02:56:21;;;;;;;45.80;29.80;;;1.60;99.90;;;;;;5072386;28;20127;-73
2023/12/06 02:58:46;;;;;;;42.60;29.42;;;1.70;99.90;;;;;;5072440;28;20072;-73
2023/12/06 03:01:12;;;;;;;37.60;26.60;;;1.60;99.90;;;;;;5055677;28;20032;-73
2023/12/06 03:03:38;;;;;;;41.15;28.75;;;1.60;99.90;;;;;;5073813;28;20037;-73
2023/12/06 03:06:03;;;;;;;44.80;29.95;;;1.60;99.90;;;;;;5072764;28;20036;-73
2023/12/06 03:08:29;;;;;;;40.88;27.88;;;1.60;99.90;;;;;;5072263;28;20562;-74
2023/12/06 03:10:55;;;;;;;41.20;27.50;;;1.70;99.90;;;;;;5072107;28;20036;-73
2023/12/06 03:13:20;;;;;;;45.53;28.75;;;1.60;99.90;;;;;;5072197;28;20074;-73
2023/12/06 03:15:46;;;;;;;46.17;29.48;;;1.60;99.90;;;;;;5073270;28;20076;-73
2023/12/06 03:18:11;;;;;;;44.20;29.83;;;1.60;99.90;;;;;;5072392;28;20047;-73
2023/12/06 03:20:37;;;;;;;41.42;28.23;;;1.70;99.90;;;;;;5072030;28;20044;-73
2023/12/06 03:23:03;;;;;;;41.40;28.10;;;1.70;99.90;;;;;;5072088;28;20036;-73
2023/12/06 03:25:29;;;;;;;38.95;27.67;;;1.70;99.90;;;;;;5055328;28;20509;-73
2023/12/06 03:27:55;;;;;;;39.55;27.27;;;1.70;99.90;;;;;;5055337;28;20040;-73
2023/12/06 03:30:21;;;;;;;41.00;26.85;;;1.70;99.90;;;;;;5071891;28;20051;-73
2023/12/06 03:32:46;;;;;;;38.28;26.00;;;1.70;99.90;;;;;;5071947;28;20051;-73
2023/12/06 03:35:12;;;;;;;40.05;27.30;;;1.70;99.90;;;;;;5073345;28;20049;-73
2023/12/06 03:37:38;;;;;;;39.90;26.58;;;1.70;99.90;;;;;;5073403;28;20044;-73
2023/12/06 03:40:04;;;;;;;38.42;26.35;;;1.70;99.90;;;;;;5072041;28;20049;-73
2023/12/06 03:42:29;;;;;;;36.92;25.88;;;1.70;99.90;;;;;;5071896;28;20033;-73
2023/12/06 03:44:55;;;;;;;35.97;25.05;;;1.80;99.90;;;;;;5071862;28;20040;-73
2023/12/06 03:47:21;;;;;;;34.70;24.50;;;1.70;99.90;;;;;;5071802;28;20037;-73
2023/12/06 03:49:46;;;;;;;40.28;25.77;;;1.80;99.90;;;;;;5072990;28;20043;-73
2023/12/06 03:52:12;;;;;;;36.65;26.23;;;1.80;99.90;;;;;;5071484;28;20429;-73
2023/12/06 03:54:37;;;;;;;36.05;24.15;;;1.70;99.90;;;;;;5073189;28;20047;-73
2023/12/06 03:57:03;;;;;;;39.95;26.05;;;1.80;99.90;;;;;;5073232;28;20036;-73
2023/12/06 03:59:29;;;;;;;41.08;26.70;;;1.70;99.90;;;;;;5071660;28;20068;-73
2023/12/06 04:01:54;;;;;;;33.67;23.55;;;1.70;99.90;;;;;;5072029;28;20037;-73
2023/12/06 04:04:20;;;;;;;34.95;25.20;;;1.80;99.90;;;;;;5054955;28;20032;-74
2023/12/06 04:06:46;;;;;;;32.38;23.60;;;1.80;99.90;;;;;;5071643;28;20043;-74
2023/12/06 04:09:11;;;;;;;32.42;23.27;;;1.80;99.90;;;;;;5071536;28;20081;-72
2023/12/06 04:11:37;;;;;;;37.15;24.98;;;1.80;99.90;;;;;;5071895;28;20119;-73
2023/12/06 04:14:03;;;;;;;35.67;24.67;;;1.80;99.90;;;;;;5072732;28;20109;-73
2023/12/06 04:16:31;;;;;;;31.33;23.50;;;1.80;99.90;;;;;;5071770;28;20037;-74
2023/12/06 04:18:57;;;;;;;31.85;23.20;;;1.80;99.90;;;;;;5071458;28;20428;-74
2023/12/06 04:21:23;;;;;;;31.17;22.83;;;1.80;99.90;;;;;;5071523;28;20048;-73
2023/12/06 04:23:49;;;;;;;31.35;22.65;;;1.80;99.90;;;;;;5071510;28;20056;-73
2023/12/06 04:26:14;;;;;;;31.73;23.60;;;1.80;99.90;;;;;;5072955;28;20040;-73
2023/12/06 04:28:40;;;;;;;33.10;23.67;;;1.80;99.90;;;;;;5071402;28;20447;-73
2023/12/06 04:31:06;;;;;;;32.33;22.35;;;1.80;99.90;;;;;;5071360;28;20098;-73
2023/12/06 04:33:32;;;;;;;30.23;22.60;;;1.80;99.90;;;;;;5071376;28;20052;-73
2023/12/06 04:35:57;;;;;;;27.85;21.48;;;1.90;99.90;;;;;;5071248;28;20080;-73
2023/12/06 04:38:23;;;;;;;27.98;20.92;;;1.80;99.90;;;;;;5072803;28;20028;-73
2023/12/06 04:40:49;;;;;;;26.17;19.88;;;1.80;99.90;;;;;;5072752;28;20037;-73
2023/12/06 04:43:16;;;;;;;31.58;21.27;;;1.80;99.90;;;;;;5071609;28;20094;-73
2023/12/06 04:45:42;;;;;;;35.20;22.67;;;1.90;99.90;;;;;;5071221;28;20400;-73
2023/12/06 04:48:07;;;;;;;28.20;20.38;;;1.80;99.90;;;;;;5072755;28;20116;-73
2023/12/06 04:50:33;;;;;;;27.85;21.25;;;1.80;99.90;;;;;;5072660;28;20405;-73
2023/12/06 04:52:59;;;;;;;31.30;21.70;;;1.90;99.90;;;;;;5071166;28;20079;-73
2023/12/06 04:55:24;;;;;;;26.15;20.23;;;1.80;99.90;;;;;;5071072;28;20082;-74
2023/12/06 04:57:50;;;;;;;29.88;20.80;;;1.80;99.90;;;;;;5071122;28;20044;-73
2023/12/06 05:00:17;;;;;;;30.02;21.05;;;1.90;99.90;;;;;;5071405;28;20037;-73
2023/12/06 05:02:43;;;;;;;28.27;19.38;;;1.90;99.90;;;;;;5073550;28;20048;-73
2023/12/06 05:05:08;;;;;;;25.55;19.30;;;1.90;99.90;;;;;;5076145;28;20037;-73
2023/12/06 05:07:34;;;;;;;23.17;18.27;;;1.90;99.90;;;;;;5074566;28;20493;-73
2023/12/06 05:09:59;;;;;;;25.85;18.60;;;1.90;99.90;;;;;;5075955;28;20047;-73
2023/12/06 05:12:25;;;;;;;28.80;19.42;;;1.90;99.90;;;;;;5074515;28;20485;-73
2023/12/06 05:14:50;;;;;;;24.63;17.77;;;1.90;99.90;;;;;;5075883;28;20036;-73
2023/12/06 05:17:16;;;;;;;25.40;17.13;;;1.90;99.90;;;;;;5074370;28;20055;-73
2023/12/06 05:19:41;;;;;;;24.95;18.23;;;1.90;99.90;;;;;;5075818;28;20068;-73
2023/12/06 05:22:07;;;;;;;24.98;18.30;;;1.90;99.90;;;;;;5075602;28;20037;-72
2023/12/06 05:24:33;;;;;;;21.40;17.17;;;1.90;99.90;;;;;;5074264;28;20046;-73
2023/12/06 05:26:58;;;;;;;22.88;17.38;;;1.90;99.90;;;;;;5075716;28;20048;-73
2023/12/06 05:29:24;;;;;;;24.45;17.60;;;1.90;99.90;;;;;;5074103;28;20033;-73
2023/12/06 05:31:49;;;;;;;23.17;16.40;;;1.90;99.90;;;;;;5074174;28;20045;-73
2023/12/06 05:34:15;;;;;;;23.80;17.92;;;2.00;99.90;;;;;;5074048;28;20049;-73
2023/12/06 05:36:41;;;;;;;22.60;18.25;;;2.00;99.90;;;;;;5075257;28;20036;-73
2023/12/06 05:39:07;;;;;;;23.80;17.55;;;1.90;99.90;;;;;;5075479;28;20139;-72
2023/12/06 05:41:33;;;;;;;27.90;19.27;;;2.00;99.90;;;;;;5073964;28;20046;-73
2023/12/06 05:43:58;;;;;;;23.25;17.08;;;2.00;99.90;;;;;;5074198;28;20117;-73
2023/12/06 05:46:24;;;;;;;28.13;19.08;;;2.00;99.90;;;;;;5075381;28;20550;-73
2023/12/06 05:48:49;;;;;;;27.10;18.25;;;2.00;99.90;;;;;;5073853;28;20049;-73
2023/12/06 05:51:15;;;;;;;28.08;19.45;;;2.00;99.90;;;;;;5057072;28;20128;-73
2023/12/06 05:53:41;;;;;;;27.52;18.73;;;2.00;99.90;;;;;;5073718;28;20051;-73
2023/12/06 05:56:07;;;;;;;23.83;17.80;;;2.00;99.90;;;;;;5073646;28;20040;-73
2023/12/06 05:58:33;;;;;;;28.02;18.98;;;2.00;99.90;;;;;;5056989;28;20078;-73
2023/12/06 06:01:00;;;;;;;24.95;17.35;;;2.00;99.90;;;;;;5073534;28;20036;-73
2023/12/06 06:03:26;;;;;;;25.40;19.15;;;2.10;99.90;;;;;;5073812;28;20036;-73
2023/12/06 06:05:52;;;;;;;24.95;18.88;;;2.00;99.90;;;;;;5073505;28;20119;-73
2023/12/06 06:08:17;;;;;;;24.83;18.15;;;2.00;99.90;;;;;;5074963;28;20080;-74
2023/12/06 06:10:43;;;;;;;28.20;19.17;;;2.00;99.90;;;;;;5073599;28;20048;-73
2023/12/06 06:13:09;;;;;;;25.17;17.40;;;2.00;99.90;;;;;;5073128;28;20437;-73
2023/12/06 06:15:35;;;;;;;26.95;19.08;;;2.00;99.90;;;;;;5074718;28;20044;-73
2023/12/06 06:18:03;;;;;;;24.40;18.95;;;2.00;99.90;;;;;;5074749;28;20039;-74
2023/12/06 06:20:28;;;;;;;25.95;20.00;;;2.10;99.90;;;;;;5073095;28;20067;-73
2023/12/06 06:22:54;;;;;;;27.17;20.17;;;2.00;99.90;;;;;;5056277;28;20037;-73
2023/12/06 06:25:19;;;;;;;27.27;18.88;;;2.00;99.90;;;;;;5074621;28;20052;-73
2023/12/06 06:27:45;;;;;;;28.88;19.75;;;2.00;99.90;;;;;;5074568;28;20048;-73
2023/12/06 06:30:11;;;;;;;24.25;19.02;;;2.10;99.90;;;;;;5074971;28;20112;-73
2023/12/06 06:32:37;;;;;;;28.40;20.08;;;2.10;99.90;;;;;;5073220;28;20028;-73
2023/12/06 06:35:03;;;;;;;27.42;19.13;;;2.10;99.90;;;;;;5073390;28;20624;-73
2023/12/06 06:37:28;;;;;;;27.45;20.80;;;2.10;99.90;;;;;;5072757;28;20040;-73
2023/12/06 06:39:54;;;;;;;26.35;19.35;;;2.10;99.90;;;;;;5056102;28;20033;-73
2023/12/06 06:42:19;;;;;;;26.90;19.15;;;2.10;99.90;;;;;;5072719;28;20033;-73
2023/12/06 06:44:45;;;;;;;31.73;19.27;;;2.10;99.90;;;;;;5074193;28;20036;-72
2023/12/06 06:47:11;;;;;;;28.75;20.38;;;2.10;99.90;;;;;;5072893;28;20497;-73
2023/12/06 06:49:39;;;;;;;25.40;19.23;;;2.10;99.90;;;;;;5074103;28;20462;-72
2023/12/06 06:52:05;;;;;;;22.05;17.38;;;2.10;99.90;;;;;;5072554;28;20080;-73
2023/12/06 06:54:31;;;;;;;23.65;17.25;;;2.20;99.90;;;;;;5072827;28;20094;-73
2023/12/06 06:56:56;;;;;;;26.85;19.23;;;2.10;99.90;;;;;;5072715;28;20040;-73
2023/12/06 06:59:22;;;;;;;25.35;18.65;;;2.20;99.90;;;;;;5072367;28;20124;-73
2023/12/06 07:01:47;;;;;;;25.77;19.55;;;2.10;99.90;;;;;;5072380;28;20044;-73
2023/12/06 07:04:13;;;;;;;27.63;19.55;;;2.20;99.90;;;;;;5072643;28;20123;-73
2023/12/06 07:06:39;;;;;;;25.05;18.42;;;2.20;99.90;;;;;;5072301;28;20052;-73
2023/12/06 07:09:05;;;;;;;27.40;19.48;;;2.20;99.90;;;;;;5072260;28;20036;-72
2023/12/06 07:11:31;;;;;;;27.67;19.02;;;2.20;99.90;;;;;;5073777;28;20037;-73
2023/12/06 07:13:56;;;;;;;27.73;20.10;;;2.20;99.90;;;;;;5072494;28;20051;-73
2023/12/06 07:16:22;;;;;;;24.13;19.05;;;2.20;99.90;;;;;;5073874;28;20401;-73
2023/12/06 07:18:49;;;;;;;21.92;17.58;;;2.20;99.90;;;;;;5072352;28;20182;-73
2023/12/06 07:21:15;;;;;;;24.67;18.65;;;2.20;99.90;;;;;;5073201;28;20390;-72
2023/12/06 07:23:40;;;;;;;22.58;18.17;;;2.20;99.90;;;;;;5072040;28;20059;-72
2023/12/06 07:26:07;;;;;;;21.55;16.80;;;2.20;99.90;;;;;;5071274;28;20121;-73
2023/12/06 07:28:33;;;;;;;22.15;17.30;;;2.20;99.90;;;;;;5072016;28;20523;-72
2023/12/06 07:30:59;;;;;;;26.00;18.95;;;2.20;99.90;;;;;;5073438;28;20044;-72
2023/12/06 07:33:26;;;;;;;23.75;17.35;;;2.20;99.90;;;;;;5073437;28;20102;-73
2023/12/06 07:35:52;;;;;;;24.83;17.50;;;2.30;99.90;;;;;;5073059;28;20622;-72
2023/12/06 07:38:17;;;;;;;27.38;18.17;;;2.30;99.90;;;;;;5071944;28;20040;-73
2023/12/06 07:40:44;;;;;;;27.27;19.40;;;2.20;99.90;;;;;;5071826;28;20075;-72
2023/12/06 07:43:09;;;;;;;23.98;17.10;;;2.30;99.90;;;;;;5073040;28;20484;-72
2023/12/06 07:45:35;;;;;;;25.83;18.70;;;2.30;99.90;;;;;;5071873;28;20071;-72
2023/12/06 07:48:02;;;;;;;27.15;18.25;;;2.30;99.90;;;;;;5072089;28;20051;-73
2023/12/06 07:50:28;;;;;;;27.17;17.63;;;2.30;99.90;;;;;;5071706;28;20400;-72
2023/12/06 07:52:54;;;;;;;20.45;16.38;;;2.30;99.90;;;;;;5071840;28;20120;-73
2023/12/06 07:55:20;;;;;;;21.67;16.85;;;2.30;99.90;;;;;;5071838;28;20097;-73
2023/12/06 07:57:46;;;;;;;20.92;17.73;;;2.40;99.90;;;;;;5071730;28;20504;-72
2023/12/06 08:00:13;;;;;;;23.83;17.08;;;2.30;99.90;;;;;;5073149;28;20048;-72
2023/12/06 08:02:39;;;;;;;24.45;17.08;;;2.30;99.90;;;;;;5071713;28;20041;-73
2023/12/06 08:05:10;;;;;;;19.60;15.45;;;2.30;99.90;;;;;;5073181;28;20089;-73
2023/12/06 08:07:37;;;;;;;22.85;16.10;;;2.40;99.90;;;;;;5055005;28;20052;-73
2023/12/06 08:10:19;;;;;;;19.58;14.55;;;2.40;99.90;;;;;;5071781;28;20182;-73
2023/12/06 08:12:45;;;;;;;22.85;18.15;;;2.40;99.90;;;;;;5073131;28;20042;-73
2023/12/06 08:15:11;;;;;;;20.33;15.75;;;2.40;99.90;;;;;;5071492;28;20048;-72
2023/12/06 08:17:36;;;;;;;22.60;16.90;;;2.50;99.90;;;;;;5073062;28;20032;-73
2023/12/06 08:20:05;;;;;;;23.77;16.45;;;2.40;99.90;;;;;;5071478;28;20404;-73
2023/12/06 08:22:30;;;;;;;25.58;18.48;;;2.40;99.90;;;;;;5071356;28;20540;-73
2023/12/06 08:24:57;;;;;;;24.00;17.55;;;2.40;99.90;;;;;;5071463;28;20044;-73
2023/12/06 08:27:32;;;;;;;23.45;16.50;;;2.40;99.90;;;;;;5071428;28;20519;-72
2023/12/06 08:29:58;;;;;;;19.95;14.70;;;2.50;99.90;;;;;;5054624;28;20051;-73
2023/12/06 08:32:24;;;;;;;25.42;17.58;;;2.40;99.90;;;;;;5071384;28;20056;-73
2023/12/06 08:34:50;;;;;;;18.80;14.90;;;2.50;99.90;;;;;;5072798;28;20090;-73
2023/12/06 08:37:16;;;;;;;20.80;16.33;;;2.40;99.90;;;;;;5073440;28;20033;-72
2023/12/06 08:39:43;;;;;;;26.30;16.80;;;2.40;99.90;;;;;;5075046;28;20039;-72
2023/12/06 08:42:09;;;;;;;17.35;15.23;;;2.40;99.90;;;;;;5075090;28;20036;-73
2023/12/06 08:44:35;;;;;;;20.30;15.15;;;2.50;99.90;;;;;;5076517;28;20082;-73
2023/12/06 08:47:01;;;;;;;21.95;15.70;;;2.40;99.90;;;;;;5076109;28;20082;-73
2023/12/06 08:49:26;;;;;;;19.95;14.02;;;2.50;99.90;;;;;;5074870;28;20115;-73
2023/12/06 08:51:52;;;;;;;24.30;15.75;;;2.50;99.90;;;;;;5074882;28;20111;-73
2023/12/06 08:54:18;;;;;;;19.45;14.38;;;2.60;99.90;;;;;;5075071;28;20036;-72
2023/12/06 08:56:43;;;;;;;18.63;14.13;;;2.50;99.90;;;;;;5074713;28;20513;-72
2023/12/06 08:59:09;;;;;;;24.42;16.65;;;2.60;99.90;;;;;;5074682;28;20041;-73
2023/12/06 09:01:34;;;;;;;21.75;15.77;;;2.50;99.90;;;;;;5074793;28;20068;-73
2023/12/06 09:04:00;;;;;;;19.23;13.75;;;2.60;99.90;;;;;;5074661;28;20036;-73
2023/12/06 09:06:25;;;;;;;21.80;14.88;;;2.50;99.90;;;;;;5074663;28;20037;-72
2023/12/06 09:08:51;;;;;;;20.35;15.55;;;2.50;99.90;;;;;;5076091;28;20044;-73
2023/12/06 09:11:20;;;;;;;20.25;14.10;;;2.50;99.90;;;;;;5074732;28;20036;-73
2023/12/06 09:13:47;;;;;;;22.02;16.08;;;2.50;99.90;;;;;;5074487;28;20047;-73
2023/12/06 09:16:13;;;;;;;18.77;15.25;;;2.60;99.90;;;;;;5074400;28;20051;-72
2023/12/06 09:18:38;;;;;;;20.25;16.38;;;2.60;99.90;;;;;;5074686;28;20506;-73
2023/12/06 09:21:04;;;;;;;23.13;16.70;;;2.60;99.90;;;;;;5074656;28;20028;-73
2023/12/06 09:23:31;;;;;;;22.63;15.93;;;2.70;99.90;;;;;;5074535;28;20040;-72
2023/12/06 09:25:58;;;;;;;20.92;15.38;;;2.60;99.90;;;;;;5057665;28;20090;-73
2023/12/06 09:28:23;;;;;;;20.10;15.10;;;2.70;99.90;;;;;;5074209;28;20513;-73
2023/12/06 09:30:49;;;;;;;20.35;15.02;;;2.70;99.90;;;;;;5057691;28;20135;-73
2023/12/06 09:33:15;;;;;;;19.17;13.27;;;2.70;99.90;;;;;;5074466;28;20439;-74
2023/12/06 09:35:41;;;;;;;20.23;14.50;;;2.70;99.90;;;;;;5074070;28;20138;-73
2023/12/06 09:38:06;;;;;;;25.45;16.05;;;2.80;99.90;;;;;;5074330;28;20123;-73
2023/12/06 09:40:32;;;;;;;26.15;15.75;;;2.80;99.90;;;;;;5073999;28;20040;-73
2023/12/06 09:43:00;;;;;;;19.00;14.43;;;2.80;99.90;;;;;;5074245;28;20036;-73
2023/12/06 09:45:27;;;;;;;20.63;15.43;;;2.80;99.90;;;;;;5057242;28;20076;-72
2023/12/06 09:47:54;;;;;;;22.10;15.60;;;2.80;99.90;;;;;;5073560;28;20048;-73
2023/12/06 09:50:20;;;;;;;19.33;14.25;;;2.80;99.90;;;;;;5075086;28;20102;-73
2023/12/06 09:52:53;;;;;;;19.23;14.10;;;2.80;99.90;;;;;;5073826;28;20140;-73
2023/12/06 09:55:26;;;;;;;23.05;15.65;;;2.90;99.90;;;;;;5073726;28;20044;-74
2023/12/06 09:57:53;;;;;;;18.90;14.65;;;2.90;99.90;;;;;;5075290;28;20033;-72
2023/12/06 10:00:19;;;;;;;18.30;15.07;;;2.90;99.90;;;;;;5075132;28;20040;-73
2023/12/06 10:02:55;;;;;;;19.88;14.30;;;2.90;99.90;;;;;;5075087;28;20042;-73
2023/12/06 10:05:21;;;;;;;20.50;14.38;;;2.90;99.90;;;;;;5075089;28;20036;-72
2023/12/06 10:07:47;;;;;;;22.58;16.67;;;2.90;99.90;;;;;;5075020;28;20079;-73
2023/12/06 10:10:21;;;;;;;23.42;16.40;;;2.90;99.90;;;;;;5073338;28;20101;-73
2023/12/06 10:12:52;;;;;;;21.30;16.42;;;2.90;99.90;;;;;;5073453;28;20036;-73
2023/12/06 10:15:19;;;;;;;20.98;14.57;;;3.00;99.90;;;;;;5073458;28;20047;-72
2023/12/06 10:17:48;;;;;;;22.00;15.20;;;2.90;99.90;;;;;;5073211;28;20446;-73
2023/12/06 10:20:14;;;;;;;23.17;16.52;;;3.00;99.90;;;;;;5074666;28;20040;-73
2023/12/06 10:22:41;;;;;;;18.98;15.00;;;3.00;99.90;;;;;;5073082;28;20528;-73
2023/12/06 10:25:08;;;;;;;18.63;15.45;;;3.00;99.90;;;;;;5073132;28;20068;-73
2023/12/06 10:27:35;;;;;;;23.73;14.98;;;3.10;99.90;;;;;;5073415;28;20040;-73
2023/12/06 10:30:08;;;;;;;20.55;15.57;;;3.00;99.90;;;;;;5074148;28;20431;-73
2023/12/06 10:32:34;;;;;;;;;;;3.10;99.90;;;;;;5074983;28;20052;-73
2023/12/06 10:35:01;;;;;;;19.27;14.98;;;3.10;99.90;;;;;;5073053;28;19943;-73
2023/12/06 10:37:28;;;;;;;19.67;13.93;;;3.10;99.90;;;;;;5073179;28;20044;-73
2023/12/06 10:40:10;;;;;;;20.95;14.82;;;3.10;99.90;;;;;;5072739;28;20036;-73
2023/12/06 10:42:38;;;;;;;17.20;13.63;;;3.20;99.90;;;;;;5072803;28;20441;-73
2023/12/06 10:45:04;;;;;;;18.17;13.88;;;3.20;99.90;;;;;;5072707;28;20041;-73
2023/12/06 10:47:31;;;;;;;21.05;15.43;;;3.20;99.90;;;;;;5074760;28;20041;-73
2023/12/06 10:49:58;;;;;;;22.55;15.02;;;3.20;99.90;;;;;;5055951;28;20090;-72
2023/12/06 10:52:24;;;;;;;20.05;14.25;;;3.30;99.90;;;;;;5072589;28;20086;-73
2023/12/06 10:54:50;;;;;;;17.88;14.32;;;3.20;99.90;;;;;;5072717;28;20048;-73
2023/12/06 10:57:17;;;;;;;21.00;14.75;;;3.30;99.90;;;;;;5056033;28;20040;-73
2023/12/06 10:59:43;;;;;;;18.85;14.52;;;3.30;99.90;;;;;;5073848;28;20086;-73
2023/12/06 11:02:10;;;;;;;19.30;12.77;;;3.30;99.90;;;;;;5072408;28;20041;-73
2023/12/06 11:04:41;;;;;;;18.00;14.13;;;3.30;99.90;;;;;;5073873;28;20024;-73
2023/12/06 11:07:20;;;;;;;17.05;13.13;;;3.30;99.90;;;;;;5072602;28;20076;-73
2023/12/06 11:10:09;;;;;;;20.52;14.52;;;3.30;99.90;;;;;;5055904;28;20126;-73
2023/12/06 11:12:49;;;;;;;18.70;13.25;;;3.30;99.90;;;;;;5072573;28;20083;-73
2023/12/06 11:15:39;;;;;;;20.08;14.68;;;3.40;99.90;;;;;;5073715;28;20044;-73
2023/12/06 11:18:16;;;;;;;23.33;13.85;;;3.40;99.90;;;;;;5072224;28;20089;-73
2023/12/06 11:20:43;;;;;;;17.38;12.50;;;3.40;99.90;;;;;;5072378;28;20032;-73
2023/12/06 11:23:13;;;;;;;20.58;12.88;;;3.40;99.90;;;;;;5071916;28;20079;-73
2023/12/06 11:25:43;;;;;;;16.00;12.55;;;3.40;99.90;;;;;;5073616;28;20048;-73
2023/12/06 11:28:20;;;;;;;19.88;13.20;;;3.40;99.90;;;;;;5072287;28;20033;-73
2023/12/06 11:30:49;;;;;;;15.57;12.55;;;3.40;99.90;;;;;;5072246;28;20094;-73
2023/12/06 11:33:15;;;;;;;16.40;11.70;;;3.40;99.90;;;;;;5072209;28;20150;-73
2023/12/06 11:35:59;;;;;;;20.80;13.45;;;3.40;99.90;;;;;;5073070;28;20464;-72
2023/12/06 11:38:36;;;;;;;17.55;12.50;;;3.40;99.90;;;;;;5071936;28;20131;-73
2023/12/06 11:41:04;;;;;;;19.52;13.00;;;3.40;99.90;;;;;;5073430;28;20116;-73
2023/12/06 11:43:47;;;;;;;18.77;13.38;;;3.40;99.90;;;;;;5073479;28;20071;-73
2023/12/06 11:46:13;;;;;;;;;;;3.50;99.90;;;;;;5073856;28;20115;-73
2023/12/06 11:48:41;;;;;;;18.35;12.30;;;3.40;99.90;;;;;;5073353;28;19938;-73
2023/12/06 11:51:07;;;;;;;15.18;12.18;;;3.40;99.90;;;;;;5072044;28;20107;-72
2023/12/06 11:53:36;;;;;;;18.23;12.88;;;3.40;99.90;;;;;;5071802;28;20037;-73
2023/12/06 11:56:02;;;;;;;18.42;13.55;;;3.40;99.90;;;;;;5073200;28;20497;-73
2023/12/06 11:58:30;;;;;;;18.25;11.95;;;3.40;99.90;;;;;;5071722;28;20485;-73
2023/12/06 12:00:56;;;;;;;16.70;12.20;;;3.40;99.90;;;;;;5071975;28;20074;-72
2023/12/06 12:03:22;;;;;;;17.13;12.90;;;3.50;99.90;;;;;;5071919;28;20053;-73
2023/12/06 12:05:49;;;;;;;16.27;12.57;;;3.50;99.90;;;;;;5073109;28;20493;-73
2023/12/06 12:08:15;;;;;;;16.88;12.07;;;3.40;99.90;;;;;;5071610;28;20052;-73
2023/12/06 12:10:41;;;;;;;18.27;11.77;;;3.40;99.90;;;;;;5073016;28;20158;-73
2023/12/06 12:13:20;;;;;;;19.23;12.88;;;3.40;99.90;;;;;;5058260;28;20039;-73
2023/12/06 12:15:57;;;;;;;19.95;13.23;;;3.50;99.90;;;;;;5075432;28;20409;-72
2023/12/06 12:18:27;;;;;;;18.60;12.13;;;3.50;99.90;;;;;;5075861;28;20044;-73
2023/12/06 12:20:58;;;;;;;16.05;11.23;;;3.50;99.90;;;;;;5075545;28;20036;-72
2023/12/06 12:23:28;;;;;;;17.80;12.20;;;3.40;99.90;;;;;;5075468;28;20029;-72
2023/12/06 12:25:54;;;;;;;16.58;12.20;;;3.50;99.90;;;;;;5075432;28;20481;-73
2023/12/06 12:28:21;;;;;;;14.57;10.88;;;3.50;99.90;;;;;;5075513;28;20127;-73
2023/12/06 12:30:51;;;;;;;19.83;11.85;;;3.40;99.90;;;;;;5058863;28;20493;-72
2023/12/06 12:33:17;;;;;;;16.77;11.88;;;3.40;99.90;;;;;;5075730;28;20036;-73
2023/12/06 12:35:44;;;;;;;16.75;11.55;;;3.40;99.90;;;;;;5075226;28;20040;-73